Terminal Aerodrome Forecast
Issued by NWS

Home | Current Version | Previous Version | Text Only | Print | Product List | Glossary On
Versions: 1 2 3 4 5 6 7 8 9 10 11 12 13 14 15 16 17 18 19 20 21
174
FTUS43 KGRR 011136
TAFAZO
TAF
KAZO 011136Z 0112/0212 04006KT 2SM BR OVC003
     FM011500 04006KT 5SM BR OVC007
     FM012000 04006KT P6SM OVC012
     FM020100 03009KT 4SM -RA BR OVC004=

USA.gov is the U.S. government's official web portal to all federal, state and local government web resources and services.